sensor_id;sensor_type;location;lat;lon;timestamp;temperature;humidity
52211;DHT22;38179;52.756;6.906;2023-05-07T00:00:46;13.80;99.90
52211;DHT22;38179;52.756;6.906;2023-05-07T00:03:12;13.80;99.90
52211;DHT22;38179;52.756;6.906;2023-05-07T00:05:39;13.70;99.90
52211;DHT22;38179;52.756;6.906;2023-05-07T00:08:05;13.70;99.90
52211;DHT22;38179;52.756;6.906;2023-05-07T00:10:31;13.70;99.90
52211;DHT22;38179;52.756;6.906;2023-05-07T00:12:57;13.70;99.90
52211;DHT22;38179;52.756;6.906;2023-05-07T00:15:23;13.70;99.90
52211;DHT22;38179;52.756;6.906;2023-05-07T00:17:49;13.60;99.90
52211;DHT22;38179;52.756;6.906;2023-05-07T00:20:15;13.60;99.90
52211;DHT22;38179;52.756;6.906;2023-05-07T00:22:41;13.50;99.90
52211;DHT22;38179;52.756;6.906;2023-05-07T00:25:07;13.50;99.90
52211;DHT22;38179;52.756;6.906;2023-05-07T00:27:33;13.50;99.90
52211;DHT22;38179;52.756;6.906;2023-05-07T00:29:59;13.40;99.90
52211;DHT22;38179;52.756;6.906;2023-05-07T00:32:25;13.40;99.90
52211;DHT22;38179;52.756;6.906;2023-05-07T00:34:51;13.30;99.90
52211;DHT22;38179;52.756;6.906;2023-05-07T00:37:17;13.30;99.90
52211;DHT22;38179;52.756;6.906;2023-05-07T00:39:42;13.30;99.90
52211;DHT22;38179;52.756;6.906;2023-05-07T00:42:08;13.30;99.90
52211;DHT22;38179;52.756;6.906;2023-05-07T00:44:34;13.30;99.90
52211;DHT22;38179;52.756;6.906;2023-05-07T00:47:02;13.20;99.90
52211;DHT22;38179;52.756;6.906;2023-05-07T00:49:41;13.20;99.90
52211;DHT22;38179;52.756;6.906;2023-05-07T00:52:08;13.20;99.90
52211;DHT22;38179;52.756;6.906;2023-05-07T00:54:34;13.20;99.90
52211;DHT22;38179;52.756;6.906;2023-05-07T00:57:02;13.20;99.90
52211;DHT22;38179;52.756;6.906;2023-05-07T00:59:30;13.10;99.90
52211;DHT22;38179;52.756;6.906;2023-05-07T01:01:56;13.10;99.90
52211;DHT22;38179;52.756;6.906;2023-05-07T01:04:22;13.10;99.90
52211;DHT22;38179;52.756;6.906;2023-05-07T01:06:48;13.00;99.90
52211;DHT22;38179;52.756;6.906;2023-05-07T01:09:14;13.00;99.90
52211;DHT22;38179;52.756;6.906;2023-05-07T01:11:40;12.90;99.90
52211;DHT22;38179;52.756;6.906;2023-05-07T01:14:07;12.80;99.90
52211;DHT22;38179;52.756;6.906;2023-05-07T01:16:34;12.80;99.90
52211;DHT22;38179;52.756;6.906;2023-05-07T01:19:00;12.70;99.90
52211;DHT22;38179;52.756;6.906;2023-05-07T01:21:26;12.70;99.90
52211;DHT22;38179;52.756;6.906;2023-05-07T01:23:54;12.70;99.90
52211;DHT22;38179;52.756;6.906;2023-05-07T01:26:20;12.70;99.90
52211;DHT22;38179;52.756;6.906;2023-05-07T01:28:47;12.60;99.90
52211;DHT22;38179;52.756;6.906;2023-05-07T01:31:14;12.60;99.90
52211;DHT22;38179;52.756;6.906;2023-05-07T01:33:41;12.60;99.90
52211;DHT22;38179;52.756;6.906;2023-05-07T01:36:09;12.60;99.90
52211;DHT22;38179;52.756;6.906;2023-05-07T01:38:37;12.50;99.90
52211;DHT22;38179;52.756;6.906;2023-05-07T01:41:04;12.50;99.90
52211;DHT22;38179;52.756;6.906;2023-05-07T01:43:30;12.50;99.90
52211;DHT22;38179;52.756;6.906;2023-05-07T01:45:57;12.40;99.90
52211;DHT22;38179;52.756;6.906;2023-05-07T01:48:24;12.40;99.90
52211;DHT22;38179;52.756;6.906;2023-05-07T01:50:51;12.40;99.90
52211;DHT22;38179;52.756;6.906;2023-05-07T01:53:18;12.30;99.90
52211;DHT22;38179;52.756;6.906;2023-05-07T01:55:43;12.30;99.90
52211;DHT22;38179;52.756;6.906;2023-05-07T01:58:10;12.20;99.90
52211;DHT22;38179;52.756;6.906;2023-05-07T02:00:36;12.20;99.90
52211;DHT22;38179;52.756;6.906;2023-05-07T02:03:02;12.20;99.90
52211;DHT22;38179;52.756;6.906;2023-05-07T02:05:28;12.20;99.90
52211;DHT22;38179;52.756;6.906;2023-05-07T02:07:54;12.20;99.90
52211;DHT22;38179;52.756;6.906;2023-05-07T02:10:20;12.10;99.90
52211;DHT22;38179;52.756;6.906;2023-05-07T02:12:45;12.10;99.90
52211;DHT22;38179;52.756;6.906;2023-05-07T02:15:11;12.00;99.90
52211;DHT22;38179;52.756;6.906;2023-05-07T02:18:07;12.10;99.90
52211;DHT22;38179;52.756;6.906;2023-05-07T02:20:33;12.10;99.90
52211;DHT22;38179;52.756;6.906;2023-05-07T02:22:59;12.10;99.90
52211;DHT22;38179;52.756;6.906;2023-05-07T02:25:25;12.10;99.90
52211;DHT22;38179;52.756;6.906;2023-05-07T02:27:51;12.10;99.90
52211;DHT22;38179;52.756;6.906;2023-05-07T02:30:17;12.10;99.90
52211;DHT22;38179;52.756;6.906;2023-05-07T02:32:43;12.00;99.90
52211;DHT22;38179;52.756;6.906;2023-05-07T02:35:09;12.00;99.90
52211;DHT22;38179;52.756;6.906;2023-05-07T02:37:35;12.00;99.90
52211;DHT22;38179;52.756;6.906;2023-05-07T02:40:01;11.90;99.90
52211;DHT22;38179;52.756;6.906;2023-05-07T02:42:28;11.90;99.90
52211;DHT22;38179;52.756;6.906;2023-05-07T02:44:54;11.90;99.90
52211;DHT22;38179;52.756;6.906;2023-05-07T02:47:20;11.90;99.90
52211;DHT22;38179;52.756;6.906;2023-05-07T02:49:46;12.00;99.90
52211;DHT22;38179;52.756;6.906;2023-05-07T02:52:12;12.00;99.90
52211;DHT22;38179;52.756;6.906;2023-05-07T02:54:38;11.90;99.90
52211;DHT22;38179;52.756;6.906;2023-05-07T02:57:04;11.90;99.90
52211;DHT22;38179;52.756;6.906;2023-05-07T02:59:30;11.90;99.90
52211;DHT22;38179;52.756;6.906;2023-05-07T03:01:56;11.90;99.90
52211;DHT22;38179;52.756;6.906;2023-05-07T03:04:22;11.80;99.90
52211;DHT22;38179;52.756;6.906;2023-05-07T03:06:50;11.80;99.90
52211;DHT22;38179;52.756;6.906;2023-05-07T03:09:16;12.10;99.90
52211;DHT22;38179;52.756;6.906;2023-05-07T03:11:42;11.80;99.90
52211;DHT22;38179;52.756;6.906;2023-05-07T03:14:08;11.80;99.90
52211;DHT22;38179;52.756;6.906;2023-05-07T03:16:34;11.70;99.90
52211;DHT22;38179;52.756;6.906;2023-05-07T03:19:00;11.80;99.90
52211;DHT22;38179;52.756;6.906;2023-05-07T03:21:26;11.70;99.90
52211;DHT22;38179;52.756;6.906;2023-05-07T03:23:52;11.70;99.90
52211;DHT22;38179;52.756;6.906;2023-05-07T03:26:18;11.70;99.90
52211;DHT22;38179;52.756;6.906;2023-05-07T03:28:44;11.70;99.90
52211;DHT22;38179;52.756;6.906;2023-05-07T03:31:10;11.70;99.90
52211;DHT22;38179;52.756;6.906;2023-05-07T03:33:51;11.70;99.90
52211;DHT22;38179;52.756;6.906;2023-05-07T03:36:17;11.70;99.90
52211;DHT22;38179;52.756;6.906;2023-05-07T03:38:43;11.70;99.90
52211;DHT22;38179;52.756;6.906;2023-05-07T03:41:09;11.70;99.90
52211;DHT22;38179;52.756;6.906;2023-05-07T03:43:35;11.60;99.90
52211;DHT22;38179;52.756;6.906;2023-05-07T03:46:01;11.60;99.90
52211;DHT22;38179;52.756;6.906;2023-05-07T03:48:27;11.70;99.90
52211;DHT22;38179;52.756;6.906;2023-05-07T03:50:53;11.60;99.90
52211;DHT22;38179;52.756;6.906;2023-05-07T03:53:19;11.60;99.90
52211;DHT22;38179;52.756;6.906;2023-05-07T03:55:44;11.60;99.90
52211;DHT22;38179;52.756;6.906;2023-05-07T03:58:10;11.60;99.90
52211;DHT22;38179;52.756;6.906;2023-05-07T04:00:36;11.60;99.90
52211;DHT22;38179;52.756;6.906;2023-05-07T04:03:06;11.60;99.90
52211;DHT22;38179;52.756;6.906;2023-05-07T04:05:31;11.60;99.90
52211;DHT22;38179;52.756;6.906;2023-05-07T04:07:58;11.60;99.90
52211;DHT22;38179;52.756;6.906;2023-05-07T04:10:25;11.60;99.90
52211;DHT22;38179;52.756;6.906;2023-05-07T04:12:50;11.50;99.90
52211;DHT22;38179;52.756;6.906;2023-05-07T04:15:16;11.50;99.90
52211;DHT22;38179;52.756;6.906;2023-05-07T04:17:42;11.50;99.90
52211;DHT22;38179;52.756;6.906;2023-05-07T04:20:15;11.50;99.90
52211;DHT22;38179;52.756;6.906;2023-05-07T04:22:41;11.50;99.90
52211;DHT22;38179;52.756;6.906;2023-05-07T04:25:08;11.50;99.90
52211;DHT22;38179;52.756;6.906;2023-05-07T04:27:37;11.50;99.90
52211;DHT22;38179;52.756;6.906;2023-05-07T04:30:03;11.50;99.90
52211;DHT22;38179;52.756;6.906;2023-05-07T04:32:30;11.50;99.90
52211;DHT22;38179;52.756;6.906;2023-05-07T04:34:56;11.50;99.90
52211;DHT22;38179;52.756;6.906;2023-05-07T04:37:22;11.50;99.90
52211;DHT22;38179;52.756;6.906;2023-05-07T04:39:48;11.50;99.90
52211;DHT22;38179;52.756;6.906;2023-05-07T04:42:17;11.50;99.90
52211;DHT22;38179;52.756;6.906;2023-05-07T04:44:44;11.50;99.90
52211;DHT22;38179;52.756;6.906;2023-05-07T04:47:13;11.50;99.90
52211;DHT22;38179;52.756;6.906;2023-05-07T04:49:39;11.50;99.90
52211;DHT22;38179;52.756;6.906;2023-05-07T04:52:05;11.50;99.90
52211;DHT22;38179;52.756;6.906;2023-05-07T04:54:30;11.50;99.90
52211;DHT22;38179;52.756;6.906;2023-05-07T04:56:56;11.50;99.90
52211;DHT22;38179;52.756;6.906;2023-05-07T04:59:22;11.50;99.90
52211;DHT22;38179;52.756;6.906;2023-05-07T05:01:48;11.50;99.90
52211;DHT22;38179;52.756;6.906;2023-05-07T05:04:14;11.40;99.90
52211;DHT22;38179;52.756;6.906;2023-05-07T05:06:40;11.50;99.90
52211;DHT22;38179;52.756;6.906;2023-05-07T05:09:07;11.40;99.90
52211;DHT22;38179;52.756;6.906;2023-05-07T05:11:32;11.40;99.90
52211;DHT22;38179;52.756;6.906;2023-05-07T05:13:59;11.50;99.90
52211;DHT22;38179;52.756;6.906;2023-05-07T05:16:26;11.50;99.90
52211;DHT22;38179;52.756;6.906;2023-05-07T05:18:52;11.40;99.90
52211;DHT22;38179;52.756;6.906;2023-05-07T05:21:20;11.50;99.90
52211;DHT22;38179;52.756;6.906;2023-05-07T05:23:46;11.50;99.90
52211;DHT22;38179;52.756;6.906;2023-05-07T05:26:12;11.40;99.90
52211;DHT22;38179;52.756;6.906;2023-05-07T05:28:38;11.50;99.90
52211;DHT22;38179;52.756;6.906;2023-05-07T05:31:05;11.50;99.90
52211;DHT22;38179;52.756;6.906;2023-05-07T05:33:30;11.50;99.90
52211;DHT22;38179;52.756;6.906;2023-05-07T05:35:56;11.60;99.90
52211;DHT22;38179;52.756;6.906;2023-05-07T05:38:22;11.60;99.90
52211;DHT22;38179;52.756;6.906;2023-05-07T05:40:48;11.60;99.90
52211;DHT22;38179;52.756;6.906;2023-05-07T05:43:14;11.60;99.90
52211;DHT22;38179;52.756;6.906;2023-05-07T05:45:40;11.60;99.90
52211;DHT22;38179;52.756;6.906;2023-05-07T05:48:06;11.70;99.90
52211;DHT22;38179;52.756;6.906;2023-05-07T05:50:32;11.70;99.90
52211;DHT22;38179;52.756;6.906;2023-05-07T05:52:58;11.70;99.90
52211;DHT22;38179;52.756;6.906;2023-05-07T05:55:24;11.70;99.90
52211;DHT22;38179;52.756;6.906;2023-05-07T05:57:50;11.70;99.90
52211;DHT22;38179;52.756;6.906;2023-05-07T06:00:16;11.80;99.90
52211;DHT22;38179;52.756;6.906;2023-05-07T06:02:42;11.80;99.90
52211;DHT22;38179;52.756;6.906;2023-05-07T06:05:08;11.80;99.90
52211;DHT22;38179;52.756;6.906;2023-05-07T06:07:34;11.80;99.90
52211;DHT22;38179;52.756;6.906;2023-05-07T06:10:01;11.90;99.90
52211;DHT22;38179;52.756;6.906;2023-05-07T06:12:27;11.90;99.90
52211;DHT22;38179;52.756;6.906;2023-05-07T06:14:53;12.00;99.90
52211;DHT22;38179;52.756;6.906;2023-05-07T06:17:19;12.00;99.90
52211;DHT22;38179;52.756;6.906;2023-05-07T06:19:44;12.00;99.90
52211;DHT22;38179;52.756;6.906;2023-05-07T06:22:10;12.00;99.90
52211;DHT22;38179;52.756;6.906;2023-05-07T06:24:36;12.00;99.90
52211;DHT22;38179;52.756;6.906;2023-05-07T06:27:02;12.00;99.90
52211;DHT22;38179;52.756;6.906;2023-05-07T06:29:29;12.00;99.90
52211;DHT22;38179;52.756;6.906;2023-05-07T06:31:57;12.00;99.90
52211;DHT22;38179;52.756;6.906;2023-05-07T06:34:31;12.00;99.90
52211;DHT22;38179;52.756;6.906;2023-05-07T06:36:57;12.00;99.90
52211;DHT22;38179;52.756;6.906;2023-05-07T06:39:23;12.00;99.90
52211;DHT22;38179;52.756;6.906;2023-05-07T06:41:49;12.00;99.90
52211;DHT22;38179;52.756;6.906;2023-05-07T06:44:15;12.00;99.90
52211;DHT22;38179;52.756;6.906;2023-05-07T06:46:41;12.00;99.90
52211;DHT22;38179;52.756;6.906;2023-05-07T06:49:07;12.00;99.90
52211;DHT22;38179;52.756;6.906;2023-05-07T06:51:34;12.00;99.90
52211;DHT22;38179;52.756;6.906;2023-05-07T06:54:00;12.00;99.90
52211;DHT22;38179;52.756;6.906;2023-05-07T06:56:26;12.00;99.90
52211;DHT22;38179;52.756;6.906;2023-05-07T06:58:52;12.10;99.90
52211;DHT22;38179;52.756;6.906;2023-05-07T07:01:18;12.10;99.90
52211;DHT22;38179;52.756;6.906;2023-05-07T07:03:43;12.10;99.90
52211;DHT22;38179;52.756;6.906;2023-05-07T07:06:09;12.20;99.90
52211;DHT22;38179;52.756;6.906;2023-05-07T07:08:35;12.20;99.90
52211;DHT22;38179;52.756;6.906;2023-05-07T07:11:04;12.20;99.90
52211;DHT22;38179;52.756;6.906;2023-05-07T07:13:30;12.20;99.90
52211;DHT22;38179;52.756;6.906;2023-05-07T07:15:56;12.20;99.90
52211;DHT22;38179;52.756;6.906;2023-05-07T07:18:22;12.20;99.90
52211;DHT22;38179;52.756;6.906;2023-05-07T07:20:48;12.20;99.90
52211;DHT22;38179;52.756;6.906;2023-05-07T07:23:15;12.20;99.90
52211;DHT22;38179;52.756;6.906;2023-05-07T07:25:40;12.30;99.90
52211;DHT22;38179;52.756;6.906;2023-05-07T07:28:06;12.30;99.90
52211;DHT22;38179;52.756;6.906;2023-05-07T07:30:32;12.30;99.90
52211;DHT22;38179;52.756;6.906;2023-05-07T07:32:58;12.30;99.90
52211;DHT22;38179;52.756;6.906;2023-05-07T07:35:29;12.30;99.90
52211;DHT22;38179;52.756;6.906;2023-05-07T07:37:55;12.40;99.90
52211;DHT22;38179;52.756;6.906;2023-05-07T07:40:21;12.40;99.90
52211;DHT22;38179;52.756;6.906;2023-05-07T07:42:47;12.60;99.90
52211;DHT22;38179;52.756;6.906;2023-05-07T07:45:13;12.60;99.90
52211;DHT22;38179;52.756;6.906;2023-05-07T07:47:42;12.70;99.90
52211;DHT22;38179;52.756;6.906;2023-05-07T07:50:08;12.80;99.90
52211;DHT22;38179;52.756;6.906;2023-05-07T07:52:34;12.90;99.90
52211;DHT22;38179;52.756;6.906;2023-05-07T07:55:01;12.90;99.90
52211;DHT22;38179;52.756;6.906;2023-05-07T07:57:27;13.00;99.90
52211;DHT22;38179;52.756;6.906;2023-05-07T07:59:53;13.00;99.90
52211;DHT22;38179;52.756;6.906;2023-05-07T08:02:18;13.00;99.90
52211;DHT22;38179;52.756;6.906;2023-05-07T08:04:45;13.00;99.90
52211;DHT22;38179;52.756;6.906;2023-05-07T08:07:11;13.00;99.90
52211;DHT22;38179;52.756;6.906;2023-05-07T08:09:37;13.00;99.90
52211;DHT22;38179;52.756;6.906;2023-05-07T08:12:04;13.10;99.90
52211;DHT22;38179;52.756;6.906;2023-05-07T08:14:30;13.10;99.90
52211;DHT22;38179;52.756;6.906;2023-05-07T08:16:56;13.20;99.90
52211;DHT22;38179;52.756;6.906;2023-05-07T08:19:22;13.20;99.90
52211;DHT22;38179;52.756;6.906;2023-05-07T08:21:48;13.20;99.90
52211;DHT22;38179;52.756;6.906;2023-05-07T08:24:15;13.20;99.90
52211;DHT22;38179;52.756;6.906;2023-05-07T08:26:41;13.30;99.90
52211;DHT22;38179;52.756;6.906;2023-05-07T08:29:07;13.30;99.90
52211;DHT22;38179;52.756;6.906;2023-05-07T08:31:33;13.40;99.90
52211;DHT22;38179;52.756;6.906;2023-05-07T08:33:59;13.50;99.90
52211;DHT22;38179;52.756;6.906;2023-05-07T08:36:25;13.50;99.90
52211;DHT22;38179;52.756;6.906;2023-05-07T08:38:52;13.50;99.90
52211;DHT22;38179;52.756;6.906;2023-05-07T08:41:18;13.50;99.90
52211;DHT22;38179;52.756;6.906;2023-05-07T08:43:49;13.60;99.90
52211;DHT22;38179;52.756;6.906;2023-05-07T08:46:22;13.60;99.90
52211;DHT22;38179;52.756;6.906;2023-05-07T08:48:49;13.70;99.90
52211;DHT22;38179;52.756;6.906;2023-05-07T08:51:19;13.80;99.90
52211;DHT22;38179;52.756;6.906;2023-05-07T08:53:47;13.80;99.90
52211;DHT22;38179;52.756;6.906;2023-05-07T08:56:16;13.90;99.90
52211;DHT22;38179;52.756;6.906;2023-05-07T08:58:43;14.00;99.90
52211;DHT22;38179;52.756;6.906;2023-05-07T09:01:13;14.00;99.90
52211;DHT22;38179;52.756;6.906;2023-05-07T09:03:40;14.10;99.90
52211;DHT22;38179;52.756;6.906;2023-05-07T09:06:06;14.10;99.90
52211;DHT22;38179;52.756;6.906;2023-05-07T09:08:33;14.20;99.90
52211;DHT22;38179;52.756;6.906;2023-05-07T09:10:59;14.30;99.90
52211;DHT22;38179;52.756;6.906;2023-05-07T09:13:27;14.40;99.90
52211;DHT22;38179;52.756;6.906;2023-05-07T09:15:56;14.50;99.90
52211;DHT22;38179;52.756;6.906;2023-05-07T09:18:25;14.60;99.90
52211;DHT22;38179;52.756;6.906;2023-05-07T09:20:52;14.60;99.90
52211;DHT22;38179;52.756;6.906;2023-05-07T09:23:18;14.70;99.90
52211;DHT22;38179;52.756;6.906;2023-05-07T09:25:44;14.70;99.90
52211;DHT22;38179;52.756;6.906;2023-05-07T09:28:10;14.80;99.90
52211;DHT22;38179;52.756;6.906;2023-05-07T09:30:36;14.80;99.90
52211;DHT22;38179;52.756;6.906;2023-05-07T09:33:03;14.80;99.90
52211;DHT22;38179;52.756;6.906;2023-05-07T09:35:30;14.80;99.90
52211;DHT22;38179;52.756;6.906;2023-05-07T09:37:57;14.80;99.90
52211;DHT22;38179;52.756;6.906;2023-05-07T09:40:25;14.90;99.90
52211;DHT22;38179;52.756;6.906;2023-05-07T09:42:51;15.00;99.90
52211;DHT22;38179;52.756;6.906;2023-05-07T09:45:30;15.00;99.90
52211;DHT22;38179;52.756;6.906;2023-05-07T09:47:57;15.10;99.90
52211;DHT22;38179;52.756;6.906;2023-05-07T09:50:30;15.20;99.90
52211;DHT22;38179;52.756;6.906;2023-05-07T09:52:58;15.30;99.90
52211;DHT22;38179;52.756;6.906;2023-05-07T09:55:25;15.40;99.90
52211;DHT22;38179;52.756;6.906;2023-05-07T09:57:52;15.50;99.90
52211;DHT22;38179;52.756;6.906;2023-05-07T10:00:19;15.50;99.90
52211;DHT22;38179;52.756;6.906;2023-05-07T10:02:47;15.50;99.90
52211;DHT22;38179;52.756;6.906;2023-05-07T10:05:15;15.60;99.90
52211;DHT22;38179;52.756;6.906;2023-05-07T10:07:41;15.70;99.90
52211;DHT22;38179;52.756;6.906;2023-05-07T10:10:07;15.80;99.90
52211;DHT22;38179;52.756;6.906;2023-05-07T10:12:33;15.80;99.90
52211;DHT22;38179;52.756;6.906;2023-05-07T10:15:08;15.90;99.90
52211;DHT22;38179;52.756;6.906;2023-05-07T10:17:38;15.90;99.90
52211;DHT22;38179;52.756;6.906;2023-05-07T10:20:06;15.90;99.90
52211;DHT22;38179;52.756;6.906;2023-05-07T10:22:41;16.00;99.90
52211;DHT22;38179;52.756;6.906;2023-05-07T10:25:21;16.10;99.90
52211;DHT22;38179;52.756;6.906;2023-05-07T10:27:49;16.20;99.90
52211;DHT22;38179;52.756;6.906;2023-05-07T10:30:31;16.30;99.90
52211;DHT22;38179;52.756;6.906;2023-05-07T10:33:02;16.40;99.90
52211;DHT22;38179;52.756;6.906;2023-05-07T10:35:36;16.40;99.90
52211;DHT22;38179;52.756;6.906;2023-05-07T10:38:03;16.50;99.90
52211;DHT22;38179;52.756;6.906;2023-05-07T10:40:31;16.40;99.90
52211;DHT22;38179;52.756;6.906;2023-05-07T10:43:01;16.40;99.90
52211;DHT22;38179;52.756;6.906;2023-05-07T10:45:29;16.40;99.90
52211;DHT22;38179;52.756;6.906;2023-05-07T10:48:16;16.50;99.90
52211;DHT22;38179;52.756;6.906;2023-05-07T10:50:44;16.60;99.90
52211;DHT22;38179;52.756;6.906;2023-05-07T10:55:51;16.50;99.90
52211;DHT22;38179;52.756;6.906;2023-05-07T10:58:25;16.60;99.90
52211;DHT22;38179;52.756;6.906;2023-05-07T11:01:00;16.50;99.90
52211;DHT22;38179;52.756;6.906;2023-05-07T11:03:27;16.50;99.90
52211;DHT22;38179;52.756;6.906;2023-05-07T11:06:13;16.50;99.90
52211;DHT22;38179;52.756;6.906;2023-05-07T11:11:17;16.60;99.90
52211;DHT22;38179;52.756;6.906;2023-05-07T11:13:48;16.80;99.90
52211;DHT22;38179;52.756;6.906;2023-05-07T11:16:24;16.80;99.90
52211;DHT22;38179;52.756;6.906;2023-05-07T11:18:53;16.90;99.90
52211;DHT22;38179;52.756;6.906;2023-05-07T11:21:38;17.10;99.90
52211;DHT22;38179;52.756;6.906;2023-05-07T11:24:09;17.10;99.90
52211;DHT22;38179;52.756;6.906;2023-05-07T11:26:49;17.10;99.90
52211;DHT22;38179;52.756;6.906;2023-05-07T11:29:22;17.10;99.90
52211;DHT22;38179;52.756;6.906;2023-05-07T11:31:52;17.10;99.90
52211;DHT22;38179;52.756;6.906;2023-05-07T11:34:26;17.00;99.90
52211;DHT22;38179;52.756;6.906;2023-05-07T11:36:52;17.00;99.90
52211;DHT22;38179;52.756;6.906;2023-05-07T11:39:44;17.20;99.90
52211;DHT22;38179;52.756;6.906;2023-05-07T11:42:30;17.20;99.90
52211;DHT22;38179;52.756;6.906;2023-05-07T11:44:56;17.30;99.90
52211;DHT22;38179;52.756;6.906;2023-05-07T11:47:22;17.30;99.90
52211;DHT22;38179;52.756;6.906;2023-05-07T11:49:50;17.40;99.90
52211;DHT22;38179;52.756;6.906;2023-05-07T11:52:17;17.40;99.90
52211;DHT22;38179;52.756;6.906;2023-05-07T11:54:57;17.50;99.90
52211;DHT22;38179;52.756;6.906;2023-05-07T11:57:24;17.50;99.90
52211;DHT22;38179;52.756;6.906;2023-05-07T11:59:57;17.60;99.90
52211;DHT22;38179;52.756;6.906;2023-05-07T12:02:24;17.70;99.90
52211;DHT22;38179;52.756;6.906;2023-05-07T12:04:51;17.80;99.90
52211;DHT22;38179;52.756;6.906;2023-05-07T12:07:17;17.80;99.90
52211;DHT22;38179;52.756;6.906;2023-05-07T12:09:45;17.80;99.90
52211;DHT22;38179;52.756;6.906;2023-05-07T12:12:11;17.80;99.90
52211;DHT22;38179;52.756;6.906;2023-05-07T12:14:41;17.80;99.90
52211;DHT22;38179;52.756;6.906;2023-05-07T12:17:10;17.80;99.90
52211;DHT22;38179;52.756;6.906;2023-05-07T12:19:38;17.90;99.90
52211;DHT22;38179;52.756;6.906;2023-05-07T12:22:05;17.90;99.90
52211;DHT22;38179;52.756;6.906;2023-05-07T12:24:57;17.90;99.90
52211;DHT22;38179;52.756;6.906;2023-05-07T12:27:23;18.00;99.90
52211;DHT22;38179;52.756;6.906;2023-05-07T12:29:50;18.10;99.90
52211;DHT22;38179;52.756;6.906;2023-05-07T12:32:20;18.20;99.90
52211;DHT22;38179;52.756;6.906;2023-05-07T12:34:50;18.40;99.90
52211;DHT22;38179;52.756;6.906;2023-05-07T12:37:16;18.40;99.90
52211;DHT22;38179;52.756;6.906;2023-05-07T12:39:49;18.40;99.90
52211;DHT22;38179;52.756;6.906;2023-05-07T12:42:19;18.30;99.90
52211;DHT22;38179;52.756;6.906;2023-05-07T12:44:45;18.30;99.90
52211;DHT22;38179;52.756;6.906;2023-05-07T12:47:12;18.40;99.90
52211;DHT22;38179;52.756;6.906;2023-05-07T12:49:38;18.50;99.90
52211;DHT22;38179;52.756;6.906;2023-05-07T12:52:05;18.60;99.90
52211;DHT22;38179;52.756;6.906;2023-05-07T12:54:33;18.60;99.90
52211;DHT22;38179;52.756;6.906;2023-05-07T12:57:07;18.50;99.90
52211;DHT22;38179;52.756;6.906;2023-05-07T12:59:42;18.50;99.90
52211;DHT22;38179;52.756;6.906;2023-05-07T13:02:09;18.50;99.90
52211;DHT22;38179;52.756;6.906;2023-05-07T13:04:35;18.60;99.90
52211;DHT22;38179;52.756;6.906;2023-05-07T13:07:01;18.50;99.90
52211;DHT22;38179;52.756;6.906;2023-05-07T13:09:28;18.50;99.90
52211;DHT22;38179;52.756;6.906;2023-05-07T13:11:54;18.40;99.90
52211;DHT22;38179;52.756;6.906;2023-05-07T13:14:20;18.30;99.90
52211;DHT22;38179;52.756;6.906;2023-05-07T13:16:49;18.20;99.90
52211;DHT22;38179;52.756;6.906;2023-05-07T13:19:15;18.10;99.90
52211;DHT22;38179;52.756;6.906;2023-05-07T13:21:41;18.10;99.90
52211;DHT22;38179;52.756;6.906;2023-05-07T13:24:07;18.00;99.90
52211;DHT22;38179;52.756;6.906;2023-05-07T13:26:33;18.00;99.90
52211;DHT22;38179;52.756;6.906;2023-05-07T13:28:59;17.90;99.90
52211;DHT22;38179;52.756;6.906;2023-05-07T13:31:25;17.90;99.90
52211;DHT22;38179;52.756;6.906;2023-05-07T13:33:51;17.90;99.90
52211;DHT22;38179;52.756;6.906;2023-05-07T13:36:18;17.90;99.90
52211;DHT22;38179;52.756;6.906;2023-05-07T13:38:43;18.00;99.90
52211;DHT22;38179;52.756;6.906;2023-05-07T13:41:09;18.00;99.90
52211;DHT22;38179;52.756;6.906;2023-05-07T13:43:35;18.00;99.90
52211;DHT22;38179;52.756;6.906;2023-05-07T13:46:01;18.10;99.90
52211;DHT22;38179;52.756;6.906;2023-05-07T13:48:27;18.20;99.90
52211;DHT22;38179;52.756;6.906;2023-05-07T13:50:54;18.20;99.90
52211;DHT22;38179;52.756;6.906;2023-05-07T13:53:19;18.40;99.90
52211;DHT22;38179;52.756;6.906;2023-05-07T13:55:45;18.30;99.90
52211;DHT22;38179;52.756;6.906;2023-05-07T13:58:12;18.40;99.90
52211;DHT22;38179;52.756;6.906;2023-05-07T14:00:38;18.40;99.90
52211;DHT22;38179;52.756;6.906;2023-05-07T14:03:05;18.40;99.90
52211;DHT22;38179;52.756;6.906;2023-05-07T14:05:31;18.40;99.90
52211;DHT22;38179;52.756;6.906;2023-05-07T14:07:57;18.30;99.90
52211;DHT22;38179;52.756;6.906;2023-05-07T14:10:24;18.20;99.90
52211;DHT22;38179;52.756;6.906;2023-05-07T14:12:50;18.20;99.90
52211;DHT22;38179;52.756;6.906;2023-05-07T14:15:16;18.10;99.90
52211;DHT22;38179;52.756;6.906;2023-05-07T14:17:42;18.10;99.90
52211;DHT22;38179;52.756;6.906;2023-05-07T14:20:09;18.10;99.90
52211;DHT22;38179;52.756;6.906;2023-05-07T14:22:36;18.10;99.90
52211;DHT22;38179;52.756;6.906;2023-05-07T14:25:03;18.10;99.90
52211;DHT22;38179;52.756;6.906;2023-05-07T14:27:29;18.00;99.90
52211;DHT22;38179;52.756;6.906;2023-05-07T14:29:55;18.00;99.90
52211;DHT22;38179;52.756;6.906;2023-05-07T14:32:21;17.90;99.90
52211;DHT22;38179;52.756;6.906;2023-05-07T14:34:47;17.80;99.90
52211;DHT22;38179;52.756;6.906;2023-05-07T14:37:13;17.80;99.90
52211;DHT22;38179;52.756;6.906;2023-05-07T14:39:39;17.70;99.90
52211;DHT22;38179;52.756;6.906;2023-05-07T14:42:05;17.60;99.90
52211;DHT22;38179;52.756;6.906;2023-05-07T14:44:37;17.60;99.90
52211;DHT22;38179;52.756;6.906;2023-05-07T14:47:03;17.50;99.90
52211;DHT22;38179;52.756;6.906;2023-05-07T14:49:29;17.50;99.90
52211;DHT22;38179;52.756;6.906;2023-05-07T14:51:57;17.50;99.90
52211;DHT22;38179;52.756;6.906;2023-05-07T14:54:24;17.50;99.90
52211;DHT22;38179;52.756;6.906;2023-05-07T14:56:50;17.40;99.90
52211;DHT22;38179;52.756;6.906;2023-05-07T14:59:17;17.40;99.90
52211;DHT22;38179;52.756;6.906;2023-05-07T15:01:47;17.40;99.90
52211;DHT22;38179;52.756;6.906;2023-05-07T15:04:13;17.50;99.90
52211;DHT22;38179;52.756;6.906;2023-05-07T15:06:39;17.50;99.90
52211;DHT22;38179;52.756;6.906;2023-05-07T15:09:05;17.60;99.90
52211;DHT22;38179;52.756;6.906;2023-05-07T15:11:31;17.60;99.90
52211;DHT22;38179;52.756;6.906;2023-05-07T15:13:56;17.80;99.90
52211;DHT22;38179;52.756;6.906;2023-05-07T15:16:22;17.90;99.90
52211;DHT22;38179;52.756;6.906;2023-05-07T15:18:48;17.90;99.90
52211;DHT22;38179;52.756;6.906;2023-05-07T15:21:14;18.00;99.90
52211;DHT22;38179;52.756;6.906;2023-05-07T15:23:40;18.00;99.90
52211;DHT22;38179;52.756;6.906;2023-05-07T15:26:07;18.10;99.90
52211;DHT22;38179;52.756;6.906;2023-05-07T15:28:36;18.10;99.90
52211;DHT22;38179;52.756;6.906;2023-05-07T15:31:01;18.10;99.90
52211;DHT22;38179;52.756;6.906;2023-05-07T15:33:27;18.00;99.90
52211;DHT22;38179;52.756;6.906;2023-05-07T15:35:53;17.90;99.90